sensor_id;sensor_type;location;lat;lon;timestamp;P1;durP1;ratioP1;P2;durP2;ratioP2
6378;SDS011;3222;48.858;10.128;2023-05-14T00:01:47;6.87;;;6.27;;
6378;SDS011;3222;48.858;10.128;2023-05-14T00:04:12;6.40;;;5.80;;
6378;SDS011;3222;48.858;10.128;2023-05-14T00:06:38;7.23;;;6.30;;
6378;SDS011;3222;48.858;10.128;2023-05-14T00:09:04;6.97;;;6.27;;
6378;SDS011;3222;48.858;10.128;2023-05-14T00:11:29;7.13;;;6.50;;
6378;SDS011;3222;48.858;10.128;2023-05-14T00:13:55;7.23;;;6.40;;
6378;SDS011;3222;48.858;10.128;2023-05-14T00:16:21;7.27;;;6.67;;
6378;SDS011;3222;48.858;10.128;2023-05-14T00:18:46;7.60;;;6.53;;
6378;SDS011;3222;48.858;10.128;2023-05-14T00:21:12;6.77;;;6.07;;
6378;SDS011;3222;48.858;10.128;2023-05-14T00:23:38;6.93;;;6.27;;
6378;SDS011;3222;48.858;10.128;2023-05-14T00:26:04;7.10;;;6.40;;
6378;SDS011;3222;48.858;10.128;2023-05-14T00:28:30;8.27;;;7.20;;
6378;SDS011;3222;48.858;10.128;2023-05-14T00:30:55;8.07;;;6.80;;
6378;SDS011;3222;48.858;10.128;2023-05-14T00:33:21;7.00;;;6.40;;
6378;SDS011;3222;48.858;10.128;2023-05-14T00:35:47;7.20;;;6.50;;
6378;SDS011;3222;48.858;10.128;2023-05-14T00:38:13;8.07;;;6.87;;
6378;SDS011;3222;48.858;10.128;2023-05-14T00:40:43;7.50;;;6.50;;
6378;SDS011;3222;48.858;10.128;2023-05-14T00:43:14;8.00;;;7.20;;
6378;SDS011;3222;48.858;10.128;2023-05-14T00:45:40;8.97;;;6.87;;
6378;SDS011;3222;48.858;10.128;2023-05-14T00:48:06;7.27;;;6.57;;
6378;SDS011;3222;48.858;10.128;2023-05-14T00:50:32;7.73;;;6.93;;
6378;SDS011;3222;48.858;10.128;2023-05-14T00:52:58;7.80;;;7.10;;
6378;SDS011;3222;48.858;10.128;2023-05-14T00:55:24;7.50;;;6.80;;
6378;SDS011;3222;48.858;10.128;2023-05-14T00:57:52;8.63;;;7.07;;
6378;SDS011;3222;48.858;10.128;2023-05-14T01:00:18;8.07;;;6.50;;
6378;SDS011;3222;48.858;10.128;2023-05-14T01:02:45;6.77;;;6.17;;
6378;SDS011;3222;48.858;10.128;2023-05-14T01:05:10;7.57;;;6.43;;
6378;SDS011;3222;48.858;10.128;2023-05-14T01:10:38;8.40;;;7.50;;
6378;SDS011;3222;48.858;10.128;2023-05-14T01:16:12;8.10;;;6.93;;
6378;SDS011;3222;48.858;10.128;2023-05-14T01:18:42;8.33;;;7.23;;
6378;SDS011;3222;48.858;10.128;2023-05-14T01:21:55;6.73;;;6.13;;
6378;SDS011;3222;48.858;10.128;2023-05-14T01:24:03;7.23;;;6.53;;
6378;SDS011;3222;48.858;10.128;2023-05-14T01:26:29;7.17;;;6.47;;
6378;SDS011;3222;48.858;10.128;2023-05-14T01:29:00;6.93;;;6.27;;
6378;SDS011;3222;48.858;10.128;2023-05-14T01:31:38;8.80;;;6.33;;
6378;SDS011;3222;48.858;10.128;2023-05-14T01:34:06;6.53;;;5.83;;
6378;SDS011;3222;48.858;10.128;2023-05-14T01:36:33;6.97;;;6.37;;
6378;SDS011;3222;48.858;10.128;2023-05-14T01:39:00;7.13;;;6.43;;
6378;SDS011;3222;48.858;10.128;2023-05-14T01:41:27;7.27;;;6.57;;
6378;SDS011;3222;48.858;10.128;2023-05-14T01:43:55;10.07;;;6.50;;
6378;SDS011;3222;48.858;10.128;2023-05-14T01:46:21;9.37;;;6.47;;
6378;SDS011;3222;48.858;10.128;2023-05-14T01:48:49;7.50;;;5.97;;
6378;SDS011;3222;48.858;10.128;2023-05-14T01:51:15;7.13;;;6.53;;
6378;SDS011;3222;48.858;10.128;2023-05-14T01:53:40;7.03;;;6.33;;
6378;SDS011;3222;48.858;10.128;2023-05-14T01:56:06;8.57;;;7.77;;
6378;SDS011;3222;48.858;10.128;2023-05-14T01:58:32;9.13;;;7.80;;
6378;SDS011;3222;48.858;10.128;2023-05-14T02:00:57;8.70;;;7.80;;
6378;SDS011;3222;48.858;10.128;2023-05-14T02:03:23;8.27;;;7.43;;
6378;SDS011;3222;48.858;10.128;2023-05-14T02:05:48;10.13;;;8.10;;
6378;SDS011;3222;48.858;10.128;2023-05-14T02:08:15;9.57;;;8.57;;
6378;SDS011;3222;48.858;10.128;2023-05-14T02:10:40;8.90;;;8.00;;
6378;SDS011;3222;48.858;10.128;2023-05-14T02:13:06;8.73;;;7.77;;
6378;SDS011;3222;48.858;10.128;2023-05-14T02:15:33;9.17;;;8.17;;
6378;SDS011;3222;48.858;10.128;2023-05-14T02:17:59;8.70;;;7.90;;
6378;SDS011;3222;48.858;10.128;2023-05-14T02:20:24;7.77;;;7.07;;
6378;SDS011;3222;48.858;10.128;2023-05-14T02:22:50;7.90;;;7.20;;
6378;SDS011;3222;48.858;10.128;2023-05-14T02:25:16;6.97;;;6.37;;
6378;SDS011;3222;48.858;10.128;2023-05-14T02:27:42;8.00;;;6.57;;
6378;SDS011;3222;48.858;10.128;2023-05-14T02:30:07;7.50;;;6.80;;
6378;SDS011;3222;48.858;10.128;2023-05-14T02:32:34;7.77;;;7.07;;
6378;SDS011;3222;48.858;10.128;2023-05-14T02:34:59;7.40;;;6.70;;
6378;SDS011;3222;48.858;10.128;2023-05-14T02:37:25;8.30;;;7.07;;
6378;SDS011;3222;48.858;10.128;2023-05-14T02:39:51;8.97;;;7.73;;
6378;SDS011;3222;48.858;10.128;2023-05-14T02:42:17;8.43;;;7.27;;
6378;SDS011;3222;48.858;10.128;2023-05-14T02:44:43;7.83;;;7.00;;
6378;SDS011;3222;48.858;10.128;2023-05-14T02:47:09;8.17;;;7.37;;
6378;SDS011;3222;48.858;10.128;2023-05-14T02:49:35;9.67;;;7.97;;
6378;SDS011;3222;48.858;10.128;2023-05-14T02:52:00;8.60;;;7.70;;
6378;SDS011;3222;48.858;10.128;2023-05-14T02:54:26;8.43;;;7.63;;
6378;SDS011;3222;48.858;10.128;2023-05-14T02:56:52;8.13;;;7.33;;
6378;SDS011;3222;48.858;10.128;2023-05-14T02:59:17;9.23;;;8.33;;
6378;SDS011;3222;48.858;10.128;2023-05-14T03:01:43;9.27;;;7.97;;
6378;SDS011;3222;48.858;10.128;2023-05-14T03:04:09;12.00;;;8.43;;
6378;SDS011;3222;48.858;10.128;2023-05-14T03:06:34;10.20;;;8.73;;
6378;SDS011;3222;48.858;10.128;2023-05-14T03:09:00;9.77;;;8.60;;
6378;SDS011;3222;48.858;10.128;2023-05-14T03:11:26;9.50;;;8.47;;
6378;SDS011;3222;48.858;10.128;2023-05-14T03:13:52;8.70;;;7.80;;
6378;SDS011;3222;48.858;10.128;2023-05-14T03:16:17;9.40;;;8.50;;
6378;SDS011;3222;48.858;10.128;2023-05-14T03:18:43;11.10;;;8.80;;
6378;SDS011;3222;48.858;10.128;2023-05-14T03:21:08;9.33;;;8.40;;
6378;SDS011;3222;48.858;10.128;2023-05-14T03:23:34;9.47;;;8.47;;
6378;SDS011;3222;48.858;10.128;2023-05-14T03:26:00;9.53;;;8.50;;
6378;SDS011;3222;48.858;10.128;2023-05-14T03:28:26;9.73;;;8.73;;
6378;SDS011;3222;48.858;10.128;2023-05-14T03:30:51;10.17;;;8.83;;
6378;SDS011;3222;48.858;10.128;2023-05-14T03:33:17;10.33;;;9.20;;
6378;SDS011;3222;48.858;10.128;2023-05-14T03:35:43;9.93;;;8.93;;
6378;SDS011;3222;48.858;10.128;2023-05-14T03:38:08;11.43;;;9.13;;
6378;SDS011;3222;48.858;10.128;2023-05-14T03:40:34;8.90;;;8.00;;
6378;SDS011;3222;48.858;10.128;2023-05-14T03:43:00;9.27;;;8.37;;
6378;SDS011;3222;48.858;10.128;2023-05-14T03:45:26;10.27;;;9.20;;
6378;SDS011;3222;48.858;10.128;2023-05-14T03:47:52;11.43;;;8.70;;
6378;SDS011;3222;48.858;10.128;2023-05-14T03:50:18;9.87;;;8.87;;
6378;SDS011;3222;48.858;10.128;2023-05-14T03:52:44;11.17;;;9.70;;
6378;SDS011;3222;48.858;10.128;2023-05-14T03:55:10;12.93;;;9.33;;
6378;SDS011;3222;48.858;10.128;2023-05-14T03:57:36;10.50;;;9.40;;
6378;SDS011;3222;48.858;10.128;2023-05-14T04:00:02;11.87;;;9.33;;
6378;SDS011;3222;48.858;10.128;2023-05-14T04:02:42;10.17;;;9.17;;
6378;SDS011;3222;48.858;10.128;2023-05-14T04:05:07;11.03;;;9.93;;
6378;SDS011;3222;48.858;10.128;2023-05-14T04:07:33;9.50;;;8.57;;
6378;SDS011;3222;48.858;10.128;2023-05-14T04:09:59;10.30;;;8.73;;
6378;SDS011;3222;48.858;10.128;2023-05-14T04:12:25;9.63;;;8.63;;
6378;SDS011;3222;48.858;10.128;2023-05-14T04:14:51;9.90;;;8.90;;
6378;SDS011;3222;48.858;10.128;2023-05-14T04:17:17;9.53;;;8.57;;
6378;SDS011;3222;48.858;10.128;2023-05-14T04:19:43;10.80;;;9.43;;
6378;SDS011;3222;48.858;10.128;2023-05-14T04:22:09;9.57;;;8.67;;
6378;SDS011;3222;48.858;10.128;2023-05-14T04:24:34;9.07;;;8.17;;
6378;SDS011;3222;48.858;10.128;2023-05-14T04:27:00;9.90;;;8.13;;
6378;SDS011;3222;48.858;10.128;2023-05-14T04:29:25;10.03;;;8.60;;
6378;SDS011;3222;48.858;10.128;2023-05-14T04:31:51;9.37;;;8.37;;
6378;SDS011;3222;48.858;10.128;2023-05-14T04:34:17;9.97;;;8.97;;
6378;SDS011;3222;48.858;10.128;2023-05-14T04:36:43;9.53;;;8.57;;
6378;SDS011;3222;48.858;10.128;2023-05-14T04:39:08;9.80;;;8.83;;
6378;SDS011;3222;48.858;10.128;2023-05-14T04:41:37;12.27;;;9.70;;
6378;SDS011;3222;48.858;10.128;2023-05-14T04:44:02;10.37;;;8.77;;
6378;SDS011;3222;48.858;10.128;2023-05-14T04:46:28;10.23;;;9.23;;
6378;SDS011;3222;48.858;10.128;2023-05-14T04:48:54;9.47;;;8.57;;
6378;SDS011;3222;48.858;10.128;2023-05-14T04:51:20;9.53;;;8.63;;
6378;SDS011;3222;48.858;10.128;2023-05-14T04:53:46;10.83;;;9.30;;
6378;SDS011;3222;48.858;10.128;2023-05-14T04:56:12;12.30;;;9.20;;
6378;SDS011;3222;48.858;10.128;2023-05-14T04:58:38;10.07;;;8.97;;
6378;SDS011;3222;48.858;10.128;2023-05-14T05:01:04;10.30;;;9.20;;
6378;SDS011;3222;48.858;10.128;2023-05-14T05:03:30;10.20;;;8.90;;
6378;SDS011;3222;48.858;10.128;2023-05-14T05:05:55;10.17;;;8.67;;
6378;SDS011;3222;48.858;10.128;2023-05-14T05:08:21;11.83;;;9.00;;
6378;SDS011;3222;48.858;10.128;2023-05-14T05:10:47;10.13;;;9.13;;
6378;SDS011;3222;48.858;10.128;2023-05-14T05:13:13;12.70;;;9.57;;
6378;SDS011;3222;48.858;10.128;2023-05-14T05:15:41;9.67;;;8.67;;
6378;SDS011;3222;48.858;10.128;2023-05-14T05:18:07;10.00;;;8.43;;
6378;SDS011;3222;48.858;10.128;2023-05-14T05:20:32;10.73;;;8.67;;
6378;SDS011;3222;48.858;10.128;2023-05-14T05:22:58;11.23;;;8.63;;
6378;SDS011;3222;48.858;10.128;2023-05-14T05:25:24;10.60;;;8.00;;
6378;SDS011;3222;48.858;10.128;2023-05-14T05:27:49;9.67;;;8.33;;
6378;SDS011;3222;48.858;10.128;2023-05-14T05:30:15;9.33;;;8.53;;
6378;SDS011;3222;48.858;10.128;2023-05-14T05:32:41;9.03;;;8.13;;
6378;SDS011;3222;48.858;10.128;2023-05-14T05:35:06;9.10;;;8.30;;
6378;SDS011;3222;48.858;10.128;2023-05-14T05:37:32;9.97;;;8.53;;
6378;SDS011;3222;48.858;10.128;2023-05-14T05:39:58;8.80;;;7.70;;
6378;SDS011;3222;48.858;10.128;2023-05-14T05:42:23;9.33;;;8.43;;
6378;SDS011;3222;48.858;10.128;2023-05-14T05:44:50;12.43;;;8.60;;
6378;SDS011;3222;48.858;10.128;2023-05-14T05:47:15;10.87;;;8.13;;
6378;SDS011;3222;48.858;10.128;2023-05-14T05:49:41;8.53;;;7.73;;
6378;SDS011;3222;48.858;10.128;2023-05-14T05:52:07;9.13;;;8.27;;
6378;SDS011;3222;48.858;10.128;2023-05-14T05:54:33;9.20;;;7.73;;
6378;SDS011;3222;48.858;10.128;2023-05-14T05:56:58;8.10;;;7.30;;
6378;SDS011;3222;48.858;10.128;2023-05-14T05:59:24;12.60;;;8.27;;
6378;SDS011;3222;48.858;10.128;2023-05-14T06:01:50;9.20;;;8.17;;
6378;SDS011;3222;48.858;10.128;2023-05-14T06:04:16;8.33;;;7.53;;
6378;SDS011;3222;48.858;10.128;2023-05-14T06:06:42;9.20;;;8.40;;
6378;SDS011;3222;48.858;10.128;2023-05-14T06:09:07;9.57;;;8.40;;
6378;SDS011;3222;48.858;10.128;2023-05-14T06:11:33;8.73;;;7.93;;
6378;SDS011;3222;48.858;10.128;2023-05-14T06:14:00;9.23;;;8.37;;
6378;SDS011;3222;48.858;10.128;2023-05-14T06:16:26;9.10;;;8.23;;
6378;SDS011;3222;48.858;10.128;2023-05-14T06:18:52;9.47;;;8.57;;
6378;SDS011;3222;48.858;10.128;2023-05-14T06:21:18;9.77;;;8.77;;
6378;SDS011;3222;48.858;10.128;2023-05-14T06:23:44;9.90;;;9.00;;
6378;SDS011;3222;48.858;10.128;2023-05-14T06:26:10;11.07;;;8.90;;
6378;SDS011;3222;48.858;10.128;2023-05-14T06:28:35;8.73;;;7.87;;
6378;SDS011;3222;48.858;10.128;2023-05-14T06:31:01;10.17;;;9.17;;
6378;SDS011;3222;48.858;10.128;2023-05-14T06:33:27;11.87;;;9.47;;
6378;SDS011;3222;48.858;10.128;2023-05-14T06:35:58;10.03;;;9.10;;
6378;SDS011;3222;48.858;10.128;2023-05-14T06:38:25;9.80;;;8.80;;
6378;SDS011;3222;48.858;10.128;2023-05-14T06:40:51;9.97;;;8.97;;
6378;SDS011;3222;48.858;10.128;2023-05-14T06:43:19;8.03;;;7.23;;
6378;SDS011;3222;48.858;10.128;2023-05-14T06:45:48;9.90;;;8.90;;
6378;SDS011;3222;48.858;10.128;2023-05-14T06:48:17;9.43;;;8.43;;
6378;SDS011;3222;48.858;10.128;2023-05-14T06:50:44;9.10;;;8.20;;
6378;SDS011;3222;48.858;10.128;2023-05-14T06:53:11;8.13;;;7.43;;
6378;SDS011;3222;48.858;10.128;2023-05-14T06:55:36;8.60;;;7.70;;
6378;SDS011;3222;48.858;10.128;2023-05-14T06:58:02;8.63;;;7.83;;
6378;SDS011;3222;48.858;10.128;2023-05-14T07:00:30;7.80;;;7.10;;
6378;SDS011;3222;48.858;10.128;2023-05-14T07:02:56;7.90;;;7.20;;
6378;SDS011;3222;48.858;10.128;2023-05-14T07:05:21;8.07;;;7.27;;
6378;SDS011;3222;48.858;10.128;2023-05-14T07:07:47;8.20;;;7.40;;
6378;SDS011;3222;48.858;10.128;2023-05-14T07:10:13;7.77;;;7.07;;
6378;SDS011;3222;48.858;10.128;2023-05-14T07:12:39;8.00;;;7.30;;
6378;SDS011;3222;48.858;10.128;2023-05-14T07:15:04;8.37;;;7.57;;
6378;SDS011;3222;48.858;10.128;2023-05-14T07:17:31;8.80;;;7.97;;
6378;SDS011;3222;48.858;10.128;2023-05-14T07:19:56;8.17;;;7.37;;
6378;SDS011;3222;48.858;10.128;2023-05-14T07:22:22;8.70;;;7.63;;
6378;SDS011;3222;48.858;10.128;2023-05-14T07:24:48;7.90;;;7.10;;
6378;SDS011;3222;48.858;10.128;2023-05-14T07:27:14;8.50;;;7.70;;
6378;SDS011;3222;48.858;10.128;2023-05-14T07:29:41;8.60;;;7.80;;
6378;SDS011;3222;48.858;10.128;2023-05-14T07:32:07;8.53;;;7.73;;
6378;SDS011;3222;48.858;10.128;2023-05-14T07:34:32;8.80;;;8.00;;
6378;SDS011;3222;48.858;10.128;2023-05-14T07:36:58;8.37;;;7.03;;
6378;SDS011;3222;48.858;10.128;2023-05-14T07:39:24;8.47;;;7.67;;
6378;SDS011;3222;48.858;10.128;2023-05-14T07:41:50;8.07;;;7.33;;
6378;SDS011;3222;48.858;10.128;2023-05-14T07:44:16;8.63;;;7.77;;
6378;SDS011;3222;48.858;10.128;2023-05-14T07:46:41;7.30;;;6.70;;
6378;SDS011;3222;48.858;10.128;2023-05-14T07:49:07;7.00;;;6.40;;
6378;SDS011;3222;48.858;10.128;2023-05-14T07:51:33;6.60;;;6.00;;
6378;SDS011;3222;48.858;10.128;2023-05-14T07:53:58;8.53;;;6.63;;
6378;SDS011;3222;48.858;10.128;2023-05-14T07:56:24;7.70;;;6.87;;
6378;SDS011;3222;48.858;10.128;2023-05-14T07:58:50;7.27;;;6.57;;
6378;SDS011;3222;48.858;10.128;2023-05-14T08:01:16;7.13;;;6.50;;
6378;SDS011;3222;48.858;10.128;2023-05-14T08:03:42;6.83;;;6.23;;
6378;SDS011;3222;48.858;10.128;2023-05-14T08:06:07;7.20;;;6.53;;
6378;SDS011;3222;48.858;10.128;2023-05-14T08:08:33;6.37;;;5.77;;
6378;SDS011;3222;48.858;10.128;2023-05-14T08:10:59;6.40;;;5.90;;
6378;SDS011;3222;48.858;10.128;2023-05-14T08:13:24;6.27;;;5.73;;
6378;SDS011;3222;48.858;10.128;2023-05-14T08:15:50;5.93;;;5.43;;
6378;SDS011;3222;48.858;10.128;2023-05-14T08:18:16;6.27;;;5.03;;
6378;SDS011;3222;48.858;10.128;2023-05-14T08:20:42;6.27;;;5.67;;
6378;SDS011;3222;48.858;10.128;2023-05-14T08:23:07;5.10;;;4.70;;
6378;SDS011;3222;48.858;10.128;2023-05-14T08:25:33;6.77;;;5.37;;
6378;SDS011;3222;48.858;10.128;2023-05-14T08:27:59;6.07;;;5.53;;
6378;SDS011;3222;48.858;10.128;2023-05-14T08:30:25;6.00;;;5.40;;
6378;SDS011;3222;48.858;10.128;2023-05-14T08:32:51;6.07;;;5.47;;
6378;SDS011;3222;48.858;10.128;2023-05-14T08:35:17;5.90;;;5.40;;
6378;SDS011;3222;48.858;10.128;2023-05-14T08:37:43;5.47;;;4.97;;
6378;SDS011;3222;48.858;10.128;2023-05-14T08:40:09;5.70;;;5.20;;
6378;SDS011;3222;48.858;10.128;2023-05-14T08:42:36;5.67;;;5.10;;
6378;SDS011;3222;48.858;10.128;2023-05-14T08:45:04;5.60;;;5.10;;
6378;SDS011;3222;48.858;10.128;2023-05-14T08:47:47;6.30;;;5.10;;
6378;SDS011;3222;48.858;10.128;2023-05-14T08:50:17;7.47;;;5.17;;
6378;SDS011;3222;48.858;10.128;2023-05-14T08:52:44;5.60;;;5.03;;
6378;SDS011;3222;48.858;10.128;2023-05-14T08:55:11;6.43;;;5.70;;
6378;SDS011;3222;48.858;10.128;2023-05-14T08:57:37;5.97;;;5.47;;
6378;SDS011;3222;48.858;10.128;2023-05-14T09:00:03;5.60;;;5.10;;
6378;SDS011;3222;48.858;10.128;2023-05-14T09:02:32;5.70;;;5.20;;
6378;SDS011;3222;48.858;10.128;2023-05-14T09:05:00;6.13;;;5.60;;
6378;SDS011;3222;48.858;10.128;2023-05-14T09:07:26;6.30;;;5.20;;
6378;SDS011;3222;48.858;10.128;2023-05-14T09:09:53;5.97;;;5.37;;
6378;SDS011;3222;48.858;10.128;2023-05-14T09:12:19;5.67;;;5.13;;
6378;SDS011;3222;48.858;10.128;2023-05-14T09:14:46;5.77;;;5.27;;
6378;SDS011;3222;48.858;10.128;2023-05-14T09:17:13;5.67;;;5.13;;
6378;SDS011;3222;48.858;10.128;2023-05-14T09:19:39;5.83;;;5.23;;
6378;SDS011;3222;48.858;10.128;2023-05-14T09:22:12;6.17;;;5.63;;
6378;SDS011;3222;48.858;10.128;2023-05-14T09:24:40;6.63;;;5.50;;
6378;SDS011;3222;48.858;10.128;2023-05-14T09:27:06;7.17;;;5.60;;
6378;SDS011;3222;48.858;10.128;2023-05-14T09:29:33;6.60;;;6.00;;
6378;SDS011;3222;48.858;10.128;2023-05-14T09:31:59;5.73;;;5.13;;
6378;SDS011;3222;48.858;10.128;2023-05-14T09:34:32;6.10;;;5.60;;
6378;SDS011;3222;48.858;10.128;2023-05-14T09:37:06;5.97;;;5.43;;
6378;SDS011;3222;48.858;10.128;2023-05-14T09:39:33;6.00;;;5.50;;
6378;SDS011;3222;48.858;10.128;2023-05-14T09:42:03;5.90;;;5.17;;
6378;SDS011;3222;48.858;10.128;2023-05-14T09:44:29;5.90;;;5.30;;
6378;SDS011;3222;48.858;10.128;2023-05-14T09:46:55;6.97;;;5.40;;
6378;SDS011;3222;48.858;10.128;2023-05-14T09:49:21;6.73;;;5.37;;
6378;SDS011;3222;48.858;10.128;2023-05-14T09:51:47;5.50;;;5.00;;
6378;SDS011;3222;48.858;10.128;2023-05-14T09:54:13;6.73;;;5.50;;
6378;SDS011;3222;48.858;10.128;2023-05-14T09:56:40;5.77;;;5.27;;
6378;SDS011;3222;48.858;10.128;2023-05-14T09:59:07;5.60;;;5.07;;
6378;SDS011;3222;48.858;10.128;2023-05-14T10:01:33;7.20;;;5.20;;
6378;SDS011;3222;48.858;10.128;2023-05-14T10:03:59;10.77;;;7.80;;
6378;SDS011;3222;48.858;10.128;2023-05-14T10:06:29;7.23;;;6.20;;
6378;SDS011;3222;48.858;10.128;2023-05-14T10:08:58;5.50;;;5.00;;
6378;SDS011;3222;48.858;10.128;2023-05-14T10:11:28;8.70;;;5.20;;
6378;SDS011;3222;48.858;10.128;2023-05-14T10:17:12;6.00;;;4.77;;
6378;SDS011;3222;48.858;10.128;2023-05-14T10:20:16;6.43;;;5.33;;
6378;SDS011;3222;48.858;10.128;2023-05-14T10:23:09;5.03;;;4.53;;
6378;SDS011;3222;48.858;10.128;2023-05-14T10:26:15;4.73;;;4.33;;
6378;SDS011;3222;48.858;10.128;2023-05-14T10:29:09;4.77;;;4.37;;
6378;SDS011;3222;48.858;10.128;2023-05-14T10:31:45;5.20;;;4.70;;
6378;SDS011;3222;48.858;10.128;2023-05-14T10:34:30;5.17;;;4.77;;
6378;SDS011;3222;48.858;10.128;2023-05-14T10:37:08;5.23;;;4.77;;
6378;SDS011;3222;48.858;10.128;2023-05-14T10:39:46;5.27;;;4.83;;
6378;SDS011;3222;48.858;10.128;2023-05-14T10:42:26;5.67;;;4.43;;
6378;SDS011;3222;48.858;10.128;2023-05-14T10:44:52;5.30;;;4.90;;
6378;SDS011;3222;48.858;10.128;2023-05-14T10:47:26;6.33;;;5.73;;
6378;SDS011;3222;48.858;10.128;2023-05-14T10:49:53;5.73;;;4.80;;
6378;SDS011;3222;48.858;10.128;2023-05-14T10:52:20;5.93;;;4.70;;
6378;SDS011;3222;48.858;10.128;2023-05-14T10:57:16;5.83;;;5.20;;
6378;SDS011;3222;48.858;10.128;2023-05-14T10:59:43;5.50;;;5.00;;
6378;SDS011;3222;48.858;10.128;2023-05-14T11:02:22;5.00;;;4.60;;
6378;SDS011;3222;48.858;10.128;2023-05-14T11:07:34;5.13;;;4.63;;
6378;SDS011;3222;48.858;10.128;2023-05-14T11:10:07;4.73;;;4.33;;
6378;SDS011;3222;48.858;10.128;2023-05-14T11:12:36;4.83;;;4.40;;
6378;SDS011;3222;48.858;10.128;2023-05-14T11:15:10;4.10;;;3.80;;
6378;SDS011;3222;48.858;10.128;2023-05-14T11:17:39;3.80;;;3.50;;
6378;SDS011;3222;48.858;10.128;2023-05-14T11:20:05;4.50;;;4.10;;
6378;SDS011;3222;48.858;10.128;2023-05-14T11:22:32;4.23;;;3.90;;
6378;SDS011;3222;48.858;10.128;2023-05-14T11:24:58;4.30;;;3.90;;
6378;SDS011;3222;48.858;10.128;2023-05-14T11:27:24;5.37;;;3.90;;
6378;SDS011;3222;48.858;10.128;2023-05-14T11:29:50;4.93;;;4.43;;
6378;SDS011;3222;48.858;10.128;2023-05-14T11:32:16;4.63;;;4.23;;
6378;SDS011;3222;48.858;10.128;2023-05-14T11:34:43;4.87;;;4.47;;
6378;SDS011;3222;48.858;10.128;2023-05-14T11:37:10;4.70;;;4.30;;
6378;SDS011;3222;48.858;10.128;2023-05-14T11:39:37;4.60;;;4.30;;
6378;SDS011;3222;48.858;10.128;2023-05-14T11:42:08;4.83;;;4.40;;
6378;SDS011;3222;48.858;10.128;2023-05-14T11:45:05;7.40;;;4.53;;
6378;SDS011;3222;48.858;10.128;2023-05-14T11:47:31;5.00;;;4.20;;
6378;SDS011;3222;48.858;10.128;2023-05-14T11:49:57;4.53;;;4.23;;
6378;SDS011;3222;48.858;10.128;2023-05-14T11:52:24;4.37;;;4.03;;
6378;SDS011;3222;48.858;10.128;2023-05-14T11:54:51;4.60;;;4.20;;
6378;SDS011;3222;48.858;10.128;2023-05-14T11:57:18;5.00;;;4.60;;
6378;SDS011;3222;48.858;10.128;2023-05-14T11:59:57;4.60;;;4.20;;
6378;SDS011;3222;48.858;10.128;2023-05-14T12:02:25;4.40;;;4.00;;
6378;SDS011;3222;48.858;10.128;2023-05-14T12:04:54;4.43;;;4.13;;
6378;SDS011;3222;48.858;10.128;2023-05-14T12:07:20;4.40;;;4.10;;
6378;SDS011;3222;48.858;10.128;2023-05-14T12:09:46;4.53;;;4.13;;
6378;SDS011;3222;48.858;10.128;2023-05-14T12:12:14;4.70;;;4.30;;
6378;SDS011;3222;48.858;10.128;2023-05-14T12:14:44;4.50;;;4.10;;
6378;SDS011;3222;48.858;10.128;2023-05-14T12:17:11;5.07;;;4.13;;
6378;SDS011;3222;48.858;10.128;2023-05-14T12:19:45;4.70;;;4.03;;
6378;SDS011;3222;48.858;10.128;2023-05-14T12:22:16;4.63;;;4.23;;
6378;SDS011;3222;48.858;10.128;2023-05-14T12:24:56;4.37;;;4.03;;
6378;SDS011;3222;48.858;10.128;2023-05-14T12:27:26;4.23;;;3.93;;
6378;SDS011;3222;48.858;10.128;2023-05-14T12:29:59;4.87;;;4.47;;
6378;SDS011;3222;48.858;10.128;2023-05-14T12:32:27;4.47;;;4.10;;
6378;SDS011;3222;48.858;10.128;2023-05-14T12:34:55;4.10;;;3.80;;
6378;SDS011;3222;48.858;10.128;2023-05-14T12:37:21;5.30;;;4.30;;
6378;SDS011;3222;48.858;10.128;2023-05-14T12:39:47;4.80;;;4.10;;
6378;SDS011;3222;48.858;10.128;2023-05-14T12:42:15;4.97;;;4.57;;
6378;SDS011;3222;48.858;10.128;2023-05-14T12:44:41;4.87;;;4.37;;
6378;SDS011;3222;48.858;10.128;2023-05-14T12:47:07;4.40;;;4.00;;
6378;SDS011;3222;48.858;10.128;2023-05-14T12:49:32;5.10;;;4.70;;
6378;SDS011;3222;48.858;10.128;2023-05-14T12:51:58;4.70;;;4.30;;
6378;SDS011;3222;48.858;10.128;2023-05-14T12:54:23;5.00;;;4.40;;
6378;SDS011;3222;48.858;10.128;2023-05-14T12:56:49;4.30;;;4.00;;
6378;SDS011;3222;48.858;10.128;2023-05-14T12:59:15;4.43;;;4.03;;
6378;SDS011;3222;48.858;10.128;2023-05-14T13:01:41;4.60;;;4.20;;
6378;SDS011;3222;48.858;10.128;2023-05-14T13:04:06;5.10;;;4.17;;
6378;SDS011;3222;48.858;10.128;2023-05-14T13:06:36;4.60;;;4.20;;
6378;SDS011;3222;48.858;10.128;2023-05-14T13:09:02;4.33;;;3.93;;
6378;SDS011;3222;48.858;10.128;2023-05-14T13:11:28;4.57;;;4.03;;
6378;SDS011;3222;48.858;10.128;2023-05-14T13:13:56;4.47;;;4.17;;
6378;SDS011;3222;48.858;10.128;2023-05-14T13:16:26;4.40;;;4.03;;
6378;SDS011;3222;48.858;10.128;2023-05-14T13:18:52;4.73;;;4.23;;
6378;SDS011;3222;48.858;10.128;2023-05-14T13:21:17;5.33;;;4.17;;
6378;SDS011;3222;48.858;10.128;2023-05-14T13:23:43;5.23;;;4.30;;
6378;SDS011;3222;48.858;10.128;2023-05-14T13:26:09;4.23;;;3.87;;
6378;SDS011;3222;48.858;10.128;2023-05-14T13:28:34;4.63;;;4.07;;
6378;SDS011;3222;48.858;10.128;2023-05-14T13:31:04;4.60;;;4.20;;
6378;SDS011;3222;48.858;10.128;2023-05-14T13:33:33;4.60;;;4.20;;
6378;SDS011;3222;48.858;10.128;2023-05-14T13:36:00;4.40;;;4.10;;
6378;SDS011;3222;48.858;10.128;2023-05-14T13:38:25;5.83;;;4.30;;
6378;SDS011;3222;48.858;10.128;2023-05-14T13:40:51;4.87;;;4.47;;
6378;SDS011;3222;48.858;10.128;2023-05-14T13:43:18;4.83;;;4.43;;
6378;SDS011;3222;48.858;10.128;2023-05-14T13:45:44;5.07;;;4.57;;
6378;SDS011;3222;48.858;10.128;2023-05-14T13:48:09;5.00;;;4.50;;
6378;SDS011;3222;48.858;10.128;2023-05-14T13:50:35;4.33;;;3.93;;
6378;SDS011;3222;48.858;10.128;2023-05-14T13:53:01;4.97;;;4.50;;
6378;SDS011;3222;48.858;10.128;2023-05-14T13:55:26;5.00;;;4.57;;
6378;SDS011;3222;48.858;10.128;2023-05-14T13:57:52;3.97;;;3.67;;
6378;SDS011;3222;48.858;10.128;2023-05-14T14:00:17;3.80;;;3.50;;
6378;SDS011;3222;48.858;10.128;2023-05-14T14:02:43;4.30;;;3.80;;
6378;SDS011;3222;48.858;10.128;2023-05-14T14:05:09;3.97;;;3.60;;
6378;SDS011;3222;48.858;10.128;2023-05-14T14:07:34;4.33;;;3.70;;
6378;SDS011;3222;48.858;10.128;2023-05-14T14:10:00;4.13;;;3.73;;
6378;SDS011;3222;48.858;10.128;2023-05-14T14:12:26;3.93;;;3.63;;
6378;SDS011;3222;48.858;10.128;2023-05-14T14:14:52;3.77;;;3.40;;
6378;SDS011;3222;48.858;10.128;2023-05-14T14:17:18;3.63;;;3.33;;
6378;SDS011;3222;48.858;10.128;2023-05-14T14:19:43;3.77;;;3.47;;
6378;SDS011;3222;48.858;10.128;2023-05-14T14:22:09;3.93;;;3.63;;
6378;SDS011;3222;48.858;10.128;2023-05-14T14:24:36;3.90;;;3.60;;
6378;SDS011;3222;48.858;10.128;2023-05-14T14:27:02;4.00;;;3.70;;
6378;SDS011;3222;48.858;10.128;2023-05-14T14:29:28;3.80;;;3.50;;
6378;SDS011;3222;48.858;10.128;2023-05-14T14:31:55;4.13;;;3.77;;
6378;SDS011;3222;48.858;10.128;2023-05-14T14:34:21;3.97;;;3.67;;
6378;SDS011;3222;48.858;10.128;2023-05-14T14:36:46;5.20;;;3.80;;
6378;SDS011;3222;48.858;10.128;2023-05-14T14:39:12;3.83;;;3.50;;
6378;SDS011;3222;48.858;10.128;2023-05-14T14:41:38;4.30;;;3.90;;
6378;SDS011;3222;48.858;10.128;2023-05-14T14:44:04;4.53;;;3.87;;
6378;SDS011;3222;48.858;10.128;2023-05-14T14:46:30;4.43;;;4.07;;
6378;SDS011;3222;48.858;10.128;2023-05-14T14:48:56;4.37;;;3.97;;
6378;SDS011;3222;48.858;10.128;2023-05-14T14:51:22;4.50;;;3.70;;
6378;SDS011;3222;48.858;10.128;2023-05-14T14:53:47;3.70;;;3.40;;
6378;SDS011;3222;48.858;10.128;2023-05-14T14:56:13;4.07;;;3.70;;
6378;SDS011;3222;48.858;10.128;2023-05-14T14:58:39;4.30;;;3.70;;
6378;SDS011;3222;48.858;10.128;2023-05-14T15:01:04;3.80;;;3.50;;
6378;SDS011;3222;48.858;10.128;2023-05-14T15:03:30;4.30;;;3.90;;
6378;SDS011;3222;48.858;10.128;2023-05-14T15:05:56;4.37;;;3.97;;
6378;SDS011;3222;48.858;10.128;2023-05-14T15:08:23;3.83;;;3.53;;
6378;SDS011;3222;48.858;10.128;2023-05-14T15:10:51;4.13;;;3.83;;
6378;SDS011;3222;48.858;10.128;2023-05-14T15:13:17;4.50;;;3.77;;
6378;SDS011;3222;48.858;10.128;2023-05-14T15:15:43;6.03;;;3.77;;